<?xml version="1.0" encoding="UTF-8" standalone="no" ?>
<gpx xmlns="http://www.topografix.com/GPX/1/1" xmlns:xsi="http://www.w3.org/2001/XMLSchema-instance" xsi:schemaLocation="http://www.topografix.com/GPX/1/1 http://www.topografix.com/GPX/1/1/gpx.xsd" version="1.1" creator="VisuGPX - https://www.visugpx.com">
  <metadata>
    <name>Banne Le Mont Long</name>
    <desc><![CDATA[L'autre "montagne" de Banne joli circuit avec de belles montées.
]]></desc>
  </metadata>
  <trk>
    <name><![CDATA[2013-12-17-01 Banne Avelas Petit Brahic]]></name>
    <trkseg>
      <trkpt lat="44.3666" lon="4.15508">
        <ele>274</ele>
        <time>2013-12-17T12:52:19Z</time>
      </trkpt>
      <trkpt lat="44.36643" lon="4.1551">
        <ele>272</ele>
        <time>2013-12-17T12:52:39Z</time>
      </trkpt>
      <trkpt lat="44.36631" lon="4.15527">
        <ele>270</ele>
        <time>2013-12-17T12:52:57Z</time>
      </trkpt>
      <trkpt lat="44.36615" lon="4.15537">
        <ele>270</ele>
        <time>2013-12-17T12:53:14Z</time>
      </trkpt>
      <trkpt lat="44.36599" lon="4.15542">
        <ele>271</ele>
        <time>2013-12-17T12:53:29Z</time>
      </trkpt>
      <trkpt lat="44.36585" lon="4.15557">
        <ele>275</ele>
        <time>2013-12-17T12:53:43Z</time>
      </trkpt>
      <trkpt lat="44.36575" lon="4.15577">
        <ele>279</ele>
        <time>2013-12-17T12:53:56Z</time>
      </trkpt>
      <trkpt lat="44.36563" lon="4.15593">
        <ele>281</ele>
        <time>2013-12-17T12:54:12Z</time>
      </trkpt>
      <trkpt lat="44.36548" lon="4.15606">
        <ele>282</ele>
        <time>2013-12-17T12:54:31Z</time>
      </trkpt>
      <trkpt lat="44.36538" lon="4.15626">
        <ele>288</ele>
        <time>2013-12-17T12:54:44Z</time>
      </trkpt>
      <trkpt lat="44.36548" lon="4.15646">
        <ele>277</ele>
        <time>2013-12-17T12:55:00Z</time>
      </trkpt>
      <trkpt lat="44.36546" lon="4.15671">
        <ele>274</ele>
        <time>2013-12-17T12:55:17Z</time>
      </trkpt>
      <trkpt lat="44.3654" lon="4.15693">
        <ele>272</ele>
        <time>2013-12-17T12:55:32Z</time>
      </trkpt>
      <trkpt lat="44.36532" lon="4.15715">
        <ele>271</ele>
        <time>2013-12-17T12:55:48Z</time>
      </trkpt>
      <trkpt lat="44.36521" lon="4.15735">
        <ele>267</ele>
        <time>2013-12-17T12:56:05Z</time>
      </trkpt>
      <trkpt lat="44.36511" lon="4.15755">
        <ele>265</ele>
        <time>2013-12-17T12:56:22Z</time>
      </trkpt>
      <trkpt lat="44.36498" lon="4.15772">
        <ele>265</ele>
        <time>2013-12-17T12:56:37Z</time>
      </trkpt>
      <trkpt lat="44.36484" lon="4.15787">
        <ele>266</ele>
        <time>2013-12-17T12:56:50Z</time>
      </trkpt>
      <trkpt lat="44.36467" lon="4.15789">
        <ele>265</ele>
        <time>2013-12-17T12:57:07Z</time>
      </trkpt>
      <trkpt lat="44.3645" lon="4.15788">
        <ele>262</ele>
        <time>2013-12-17T12:57:22Z</time>
      </trkpt>
      <trkpt lat="44.36434" lon="4.15796">
        <ele>260</ele>
        <time>2013-12-17T12:57:38Z</time>
      </trkpt>
      <trkpt lat="44.36417" lon="4.15795">
        <ele>258</ele>
        <time>2013-12-17T12:57:55Z</time>
      </trkpt>
      <trkpt lat="44.36399" lon="4.15794">
        <ele>256</ele>
        <time>2013-12-17T12:58:12Z</time>
      </trkpt>
      <trkpt lat="44.36382" lon="4.158">
        <ele>254</ele>
        <time>2013-12-17T12:58:28Z</time>
      </trkpt>
      <trkpt lat="44.36369" lon="4.15814">
        <ele>255</ele>
        <time>2013-12-17T12:58:46Z</time>
      </trkpt>
      <trkpt lat="44.36356" lon="4.15831">
        <ele>254</ele>
        <time>2013-12-17T12:59:02Z</time>
      </trkpt>
      <trkpt lat="44.36347" lon="4.15853">
        <ele>254</ele>
        <time>2013-12-17T12:59:21Z</time>
      </trkpt>
      <trkpt lat="44.36341" lon="4.15877">
        <ele>250</ele>
        <time>2013-12-17T12:59:43Z</time>
      </trkpt>
      <trkpt lat="44.3634" lon="4.15901">
        <ele>246</ele>
        <time>2013-12-17T13:00:12Z</time>
      </trkpt>
      <trkpt lat="44.36341" lon="4.15926">
        <ele>241</ele>
        <time>2013-12-17T13:00:49Z</time>
      </trkpt>
      <trkpt lat="44.36352" lon="4.15946">
        <ele>239</ele>
        <time>2013-12-17T13:02:00Z</time>
      </trkpt>
      <trkpt lat="44.36344" lon="4.15969">
        <ele>229</ele>
        <time>2013-12-17T13:02:45Z</time>
      </trkpt>
      <trkpt lat="44.36346" lon="4.15994">
        <ele>223</ele>
        <time>2013-12-17T13:03:21Z</time>
      </trkpt>
      <trkpt lat="44.3634" lon="4.16016">
        <ele>228</ele>
        <time>2013-12-17T13:03:45Z</time>
      </trkpt>
      <trkpt lat="44.36334" lon="4.1604">
        <ele>225</ele>
        <time>2013-12-17T13:04:05Z</time>
      </trkpt>
      <trkpt lat="44.36324" lon="4.1606">
        <ele>222</ele>
        <time>2013-12-17T13:04:34Z</time>
      </trkpt>
      <trkpt lat="44.36309" lon="4.1607">
        <ele>216</ele>
        <time>2013-12-17T13:04:59Z</time>
      </trkpt>
      <trkpt lat="44.36314" lon="4.16093">
        <ele>205</ele>
        <time>2013-12-17T13:05:39Z</time>
      </trkpt>
      <trkpt lat="44.36312" lon="4.16118">
        <ele>202</ele>
        <time>2013-12-17T13:06:20Z</time>
      </trkpt>
      <trkpt lat="44.36296" lon="4.16128">
        <ele>199</ele>
        <time>2013-12-17T13:06:52Z</time>
      </trkpt>
      <trkpt lat="44.36299" lon="4.16153">
        <ele>195</ele>
        <time>2013-12-17T13:08:07Z</time>
      </trkpt>
      <trkpt lat="44.36312" lon="4.16171">
        <ele>193</ele>
        <time>2013-12-17T13:09:04Z</time>
      </trkpt>
      <trkpt lat="44.36313" lon="4.16196">
        <ele>184</ele>
        <time>2013-12-17T13:09:45Z</time>
      </trkpt>
      <trkpt lat="44.36314" lon="4.16221">
        <ele>179</ele>
        <time>2013-12-17T13:10:29Z</time>
      </trkpt>
      <trkpt lat="44.36323" lon="4.16242">
        <ele>176</ele>
        <time>2013-12-17T13:11:11Z</time>
      </trkpt>
      <trkpt lat="44.3633" lon="4.16265">
        <ele>170</ele>
        <time>2013-12-17T13:11:49Z</time>
      </trkpt>
      <trkpt lat="44.36337" lon="4.16288">
        <ele>170</ele>
        <time>2013-12-17T13:12:07Z</time>
      </trkpt>
      <trkpt lat="44.36343" lon="4.16311">
        <ele>167</ele>
        <time>2013-12-17T13:12:26Z</time>
      </trkpt>
      <trkpt lat="44.36346" lon="4.16334">
        <ele>169</ele>
        <time>2013-12-17T13:12:42Z</time>
      </trkpt>
      <trkpt lat="44.36342" lon="4.16357">
        <ele>182</ele>
        <time>2013-12-17T13:13:38Z</time>
      </trkpt>
      <trkpt lat="44.36346" lon="4.1638">
        <ele>173</ele>
        <time>2013-12-17T13:14:00Z</time>
      </trkpt>
      <trkpt lat="44.36355" lon="4.164">
        <ele>170</ele>
        <time>2013-12-17T13:14:18Z</time>
      </trkpt>
      <trkpt lat="44.36369" lon="4.16415">
        <ele>169</ele>
        <time>2013-12-17T13:14:32Z</time>
      </trkpt>
      <trkpt lat="44.36381" lon="4.16431">
        <ele>167</ele>
        <time>2013-12-17T13:14:47Z</time>
      </trkpt>
      <trkpt lat="44.3639" lon="4.16451">
        <ele>171</ele>
        <time>2013-12-17T13:14:59Z</time>
      </trkpt>
      <trkpt lat="44.36391" lon="4.16475">
        <ele>170</ele>
        <time>2013-12-17T13:15:17Z</time>
      </trkpt>
      <trkpt lat="44.36387" lon="4.16499">
        <ele>166</ele>
        <time>2013-12-17T13:15:35Z</time>
      </trkpt>
      <trkpt lat="44.36379" lon="4.16521">
        <ele>170</ele>
        <time>2013-12-17T13:15:49Z</time>
      </trkpt>
      <trkpt lat="44.36372" lon="4.16544">
        <ele>168</ele>
        <time>2013-12-17T13:16:08Z</time>
      </trkpt>
      <trkpt lat="44.36363" lon="4.16566">
        <ele>165</ele>
        <time>2013-12-17T13:16:44Z</time>
      </trkpt>
      <trkpt lat="44.36347" lon="4.16577">
        <ele>167</ele>
        <time>2013-12-17T13:17:08Z</time>
      </trkpt>
      <trkpt lat="44.3633" lon="4.16581">
        <ele>168</ele>
        <time>2013-12-17T13:17:28Z</time>
      </trkpt>
      <trkpt lat="44.36313" lon="4.16585">
        <ele>167</ele>
        <time>2013-12-17T13:17:45Z</time>
      </trkpt>
      <trkpt lat="44.36295" lon="4.16584">
        <ele>167</ele>
        <time>2013-12-17T13:18:02Z</time>
      </trkpt>
      <trkpt lat="44.36277" lon="4.16581">
        <ele>167</ele>
        <time>2013-12-17T13:18:20Z</time>
      </trkpt>
      <trkpt lat="44.36265" lon="4.16599">
        <ele>169</ele>
        <time>2013-12-17T13:18:45Z</time>
      </trkpt>
      <trkpt lat="44.36265" lon="4.16624">
        <ele>171</ele>
        <time>2013-12-17T13:19:18Z</time>
      </trkpt>
      <trkpt lat="44.36282" lon="4.16627">
        <ele>177</ele>
        <time>2013-12-17T13:19:39Z</time>
      </trkpt>
      <trkpt lat="44.363" lon="4.16625">
        <ele>175</ele>
        <time>2013-12-17T13:19:54Z</time>
      </trkpt>
      <trkpt lat="44.36317" lon="4.16626">
        <ele>178</ele>
        <time>2013-12-17T13:20:23Z</time>
      </trkpt>
      <trkpt lat="44.3632" lon="4.16651">
        <ele>172</ele>
        <time>2013-12-17T13:22:17Z</time>
      </trkpt>
      <trkpt lat="44.36305" lon="4.16664">
        <ele>176</ele>
        <time>2013-12-17T13:22:52Z</time>
      </trkpt>
      <trkpt lat="44.3629" lon="4.16676">
        <ele>178</ele>
        <time>2013-12-17T13:23:21Z</time>
      </trkpt>
      <trkpt lat="44.36277" lon="4.16692">
        <ele>183</ele>
        <time>2013-12-17T13:23:53Z</time>
      </trkpt>
      <trkpt lat="44.36265" lon="4.16712">
        <ele>187</ele>
        <time>2013-12-17T13:24:33Z</time>
      </trkpt>
      <trkpt lat="44.36255" lon="4.16732">
        <ele>192</ele>
        <time>2013-12-17T13:25:07Z</time>
      </trkpt>
      <trkpt lat="44.36246" lon="4.16754">
        <ele>196</ele>
        <time>2013-12-17T13:25:34Z</time>
      </trkpt>
      <trkpt lat="44.36239" lon="4.16777">
        <ele>197</ele>
        <time>2013-12-17T13:26:00Z</time>
      </trkpt>
      <trkpt lat="44.36245" lon="4.168">
        <ele>206</ele>
        <time>2013-12-17T13:26:56Z</time>
      </trkpt>
      <trkpt lat="44.36246" lon="4.16824">
        <ele>206</ele>
        <time>2013-12-17T13:27:26Z</time>
      </trkpt>
      <trkpt lat="44.36242" lon="4.16849">
        <ele>210</ele>
        <time>2013-12-17T13:27:56Z</time>
      </trkpt>
      <trkpt lat="44.36238" lon="4.16873">
        <ele>216</ele>
        <time>2013-12-17T13:29:42Z</time>
      </trkpt>
      <trkpt lat="44.36245" lon="4.16896">
        <ele>220</ele>
        <time>2013-12-17T13:30:19Z</time>
      </trkpt>
      <trkpt lat="44.36245" lon="4.16921">
        <ele>225</ele>
        <time>2013-12-17T13:31:00Z</time>
      </trkpt>
      <trkpt lat="44.36242" lon="4.16946">
        <ele>227</ele>
        <time>2013-12-17T13:31:38Z</time>
      </trkpt>
      <trkpt lat="44.36232" lon="4.16965">
        <ele>224</ele>
        <time>2013-12-17T13:32:02Z</time>
      </trkpt>
      <trkpt lat="44.36221" lon="4.16985">
        <ele>224</ele>
        <time>2013-12-17T13:32:20Z</time>
      </trkpt>
      <trkpt lat="44.3621" lon="4.17004">
        <ele>224</ele>
        <time>2013-12-17T13:32:39Z</time>
      </trkpt>
      <trkpt lat="44.36198" lon="4.17022">
        <ele>225</ele>
        <time>2013-12-17T13:32:59Z</time>
      </trkpt>
      <trkpt lat="44.36187" lon="4.17042">
        <ele>224</ele>
        <time>2013-12-17T13:33:22Z</time>
      </trkpt>
      <trkpt lat="44.36176" lon="4.17062">
        <ele>222</ele>
        <time>2013-12-17T13:33:43Z</time>
      </trkpt>
      <trkpt lat="44.36164" lon="4.17079">
        <ele>219</ele>
        <time>2013-12-17T13:34:04Z</time>
      </trkpt>
      <trkpt lat="44.36153" lon="4.17098">
        <ele>218</ele>
        <time>2013-12-17T13:34:23Z</time>
      </trkpt>
      <trkpt lat="44.36142" lon="4.17118">
        <ele>217</ele>
        <time>2013-12-17T13:34:44Z</time>
      </trkpt>
      <trkpt lat="44.36133" lon="4.17139">
        <ele>218</ele>
        <time>2013-12-17T13:35:02Z</time>
      </trkpt>
      <trkpt lat="44.36123" lon="4.1716">
        <ele>218</ele>
        <time>2013-12-17T13:35:22Z</time>
      </trkpt>
      <trkpt lat="44.36114" lon="4.17181">
        <ele>218</ele>
        <time>2013-12-17T13:35:42Z</time>
      </trkpt>
      <trkpt lat="44.36103" lon="4.172">
        <ele>221</ele>
        <time>2013-12-17T13:36:03Z</time>
      </trkpt>
      <trkpt lat="44.36094" lon="4.17221">
        <ele>221</ele>
        <time>2013-12-17T13:36:24Z</time>
      </trkpt>
      <trkpt lat="44.36077" lon="4.17227">
        <ele>224</ele>
        <time>2013-12-17T13:36:49Z</time>
      </trkpt>
      <trkpt lat="44.36059" lon="4.17226">
        <ele>226</ele>
        <time>2013-12-17T13:37:12Z</time>
      </trkpt>
      <trkpt lat="44.36052" lon="4.17248">
        <ele>224</ele>
        <time>2013-12-17T13:37:38Z</time>
      </trkpt>
      <trkpt lat="44.36043" lon="4.17269">
        <ele>224</ele>
        <time>2013-12-17T13:37:57Z</time>
      </trkpt>
      <trkpt lat="44.36037" lon="4.17292">
        <ele>225</ele>
        <time>2013-12-17T13:38:20Z</time>
      </trkpt>
      <trkpt lat="44.36039" lon="4.17317">
        <ele>229</ele>
        <time>2013-12-17T13:38:41Z</time>
      </trkpt>
      <trkpt lat="44.36031" lon="4.17338">
        <ele>225</ele>
        <time>2013-12-17T13:39:01Z</time>
      </trkpt>
      <trkpt lat="44.36021" lon="4.17359">
        <ele>224</ele>
        <time>2013-12-17T13:39:22Z</time>
      </trkpt>
      <trkpt lat="44.36013" lon="4.17381">
        <ele>224</ele>
        <time>2013-12-17T13:39:43Z</time>
      </trkpt>
      <trkpt lat="44.36002" lon="4.17401">
        <ele>226</ele>
        <time>2013-12-17T13:40:03Z</time>
      </trkpt>
      <trkpt lat="44.35992" lon="4.1742">
        <ele>226</ele>
        <time>2013-12-17T13:40:28Z</time>
      </trkpt>
      <trkpt lat="44.35984" lon="4.17442">
        <ele>225</ele>
        <time>2013-12-17T13:40:53Z</time>
      </trkpt>
      <trkpt lat="44.35978" lon="4.17466">
        <ele>227</ele>
        <time>2013-12-17T13:41:31Z</time>
      </trkpt>
      <trkpt lat="44.35962" lon="4.17476">
        <ele>225</ele>
        <time>2013-12-17T13:49:00Z</time>
      </trkpt>
      <trkpt lat="44.35945" lon="4.17472">
        <ele>224</ele>
        <time>2013-12-17T13:49:21Z</time>
      </trkpt>
      <trkpt lat="44.35927" lon="4.17468">
        <ele>226</ele>
        <time>2013-12-17T13:49:41Z</time>
      </trkpt>
      <trkpt lat="44.35913" lon="4.17454">
        <ele>227</ele>
        <time>2013-12-17T13:50:29Z</time>
      </trkpt>
      <trkpt lat="44.35898" lon="4.17441">
        <ele>227</ele>
        <time>2013-12-17T13:51:00Z</time>
      </trkpt>
      <trkpt lat="44.35881" lon="4.17433">
        <ele>228</ele>
        <time>2013-12-17T13:51:27Z</time>
      </trkpt>
      <trkpt lat="44.35864" lon="4.17427">
        <ele>225</ele>
        <time>2013-12-17T13:51:59Z</time>
      </trkpt>
      <trkpt lat="44.35846" lon="4.17424">
        <ele>225</ele>
        <time>2013-12-17T13:52:22Z</time>
      </trkpt>
      <trkpt lat="44.3583" lon="4.17434">
        <ele>226</ele>
        <time>2013-12-17T13:52:41Z</time>
      </trkpt>
      <trkpt lat="44.35813" lon="4.17441">
        <ele>226</ele>
        <time>2013-12-17T13:53:00Z</time>
      </trkpt>
      <trkpt lat="44.35796" lon="4.1745">
        <ele>226</ele>
        <time>2013-12-17T13:53:31Z</time>
      </trkpt>
      <trkpt lat="44.35779" lon="4.17451">
        <ele>223</ele>
        <time>2013-12-17T13:53:57Z</time>
      </trkpt>
      <trkpt lat="44.35761" lon="4.17449">
        <ele>222</ele>
        <time>2013-12-17T13:54:24Z</time>
      </trkpt>
      <trkpt lat="44.35744" lon="4.17452">
        <ele>222</ele>
        <time>2013-12-17T13:54:44Z</time>
      </trkpt>
      <trkpt lat="44.35726" lon="4.17454">
        <ele>220</ele>
        <time>2013-12-17T13:55:05Z</time>
      </trkpt>
      <trkpt lat="44.35709" lon="4.17461">
        <ele>220</ele>
        <time>2013-12-17T13:55:30Z</time>
      </trkpt>
      <trkpt lat="44.35693" lon="4.17471">
        <ele>222</ele>
        <time>2013-12-17T13:55:58Z</time>
      </trkpt>
      <trkpt lat="44.35682" lon="4.17491">
        <ele>216</ele>
        <time>2013-12-17T13:56:33Z</time>
      </trkpt>
      <trkpt lat="44.3567" lon="4.17509">
        <ele>220</ele>
        <time>2013-12-17T13:57:33Z</time>
      </trkpt>
      <trkpt lat="44.35655" lon="4.17497">
        <ele>224</ele>
        <time>2013-12-17T13:59:01Z</time>
      </trkpt>
      <trkpt lat="44.35646" lon="4.17477">
        <ele>226</ele>
        <time>2013-12-17T13:59:24Z</time>
      </trkpt>
      <trkpt lat="44.35637" lon="4.17457">
        <ele>227</ele>
        <time>2013-12-17T13:59:44Z</time>
      </trkpt>
      <trkpt lat="44.35627" lon="4.17437">
        <ele>227</ele>
        <time>2013-12-17T14:00:04Z</time>
      </trkpt>
      <trkpt lat="44.35619" lon="4.17415">
        <ele>236</ele>
        <time>2013-12-17T14:00:28Z</time>
      </trkpt>
      <trkpt lat="44.35608" lon="4.17394">
        <ele>233</ele>
        <time>2013-12-17T14:00:55Z</time>
      </trkpt>
      <trkpt lat="44.35597" lon="4.17376">
        <ele>228</ele>
        <time>2013-12-17T14:01:15Z</time>
      </trkpt>
      <trkpt lat="44.35587" lon="4.17356">
        <ele>233</ele>
        <time>2013-12-17T14:01:37Z</time>
      </trkpt>
      <trkpt lat="44.35573" lon="4.1734">
        <ele>234</ele>
        <time>2013-12-17T14:01:57Z</time>
      </trkpt>
      <trkpt lat="44.35562" lon="4.1732">
        <ele>239</ele>
        <time>2013-12-17T14:02:21Z</time>
      </trkpt>
      <trkpt lat="44.35554" lon="4.17298">
        <ele>239</ele>
        <time>2013-12-17T14:02:43Z</time>
      </trkpt>
      <trkpt lat="44.35544" lon="4.17278">
        <ele>241</ele>
        <time>2013-12-17T14:03:07Z</time>
      </trkpt>
      <trkpt lat="44.35529" lon="4.17264">
        <ele>246</ele>
        <time>2013-12-17T14:03:33Z</time>
      </trkpt>
      <trkpt lat="44.35514" lon="4.1725">
        <ele>248</ele>
        <time>2013-12-17T14:03:58Z</time>
      </trkpt>
      <trkpt lat="44.35502" lon="4.17233">
        <ele>250</ele>
        <time>2013-12-17T14:04:19Z</time>
      </trkpt>
      <trkpt lat="44.35489" lon="4.17215">
        <ele>251</ele>
        <time>2013-12-17T14:04:40Z</time>
      </trkpt>
      <trkpt lat="44.35476" lon="4.17198">
        <ele>252</ele>
        <time>2013-12-17T14:05:01Z</time>
      </trkpt>
      <trkpt lat="44.35467" lon="4.17177">
        <ele>256</ele>
        <time>2013-12-17T14:05:23Z</time>
      </trkpt>
      <trkpt lat="44.35455" lon="4.17158">
        <ele>258</ele>
        <time>2013-12-17T14:05:44Z</time>
      </trkpt>
      <trkpt lat="44.35446" lon="4.17137">
        <ele>258</ele>
        <time>2013-12-17T14:06:02Z</time>
      </trkpt>
      <trkpt lat="44.35437" lon="4.17116">
        <ele>255</ele>
        <time>2013-12-17T14:06:20Z</time>
      </trkpt>
      <trkpt lat="44.3543" lon="4.17094">
        <ele>259</ele>
        <time>2013-12-17T14:06:37Z</time>
      </trkpt>
      <trkpt lat="44.35422" lon="4.17073">
        <ele>261</ele>
        <time>2013-12-17T14:06:57Z</time>
      </trkpt>
      <trkpt lat="44.35412" lon="4.17053">
        <ele>261</ele>
        <time>2013-12-17T14:07:18Z</time>
      </trkpt>
      <trkpt lat="44.35402" lon="4.17032">
        <ele>262</ele>
        <time>2013-12-17T14:12:14Z</time>
      </trkpt>
      <trkpt lat="44.35391" lon="4.17012">
        <ele>259</ele>
        <time>2013-12-17T14:12:38Z</time>
      </trkpt>
      <trkpt lat="44.35378" lon="4.16997">
        <ele>254</ele>
        <time>2013-12-17T14:13:26Z</time>
      </trkpt>
      <trkpt lat="44.35374" lon="4.16972">
        <ele>244</ele>
        <time>2013-12-17T14:13:51Z</time>
      </trkpt>
      <trkpt lat="44.3537" lon="4.16949">
        <ele>244</ele>
        <time>2013-12-17T14:14:10Z</time>
      </trkpt>
      <trkpt lat="44.35363" lon="4.16927">
        <ele>242</ele>
        <time>2013-12-17T14:14:31Z</time>
      </trkpt>
      <trkpt lat="44.35347" lon="4.16916">
        <ele>241</ele>
        <time>2013-12-17T14:15:09Z</time>
      </trkpt>
      <trkpt lat="44.3533" lon="4.1692">
        <ele>236</ele>
        <time>2013-12-17T14:15:32Z</time>
      </trkpt>
      <trkpt lat="44.35312" lon="4.16923">
        <ele>233</ele>
        <time>2013-12-17T14:15:53Z</time>
      </trkpt>
      <trkpt lat="44.35295" lon="4.16915">
        <ele>235</ele>
        <time>2013-12-17T14:16:10Z</time>
      </trkpt>
      <trkpt lat="44.35278" lon="4.16912">
        <ele>234</ele>
        <time>2013-12-17T14:16:29Z</time>
      </trkpt>
      <trkpt lat="44.3526" lon="4.16911">
        <ele>231</ele>
        <time>2013-12-17T14:16:47Z</time>
      </trkpt>
      <trkpt lat="44.35243" lon="4.16909">
        <ele>230</ele>
        <time>2013-12-17T14:17:04Z</time>
      </trkpt>
      <trkpt lat="44.35227" lon="4.16896">
        <ele>230</ele>
        <time>2013-12-17T14:17:21Z</time>
      </trkpt>
      <trkpt lat="44.35226" lon="4.16872">
        <ele>231</ele>
        <time>2013-12-17T14:17:38Z</time>
      </trkpt>
      <trkpt lat="44.35227" lon="4.16847">
        <ele>229</ele>
        <time>2013-12-17T14:17:56Z</time>
      </trkpt>
      <trkpt lat="44.35228" lon="4.16822">
        <ele>226</ele>
        <time>2013-12-17T14:18:14Z</time>
      </trkpt>
      <trkpt lat="44.35232" lon="4.16797">
        <ele>223</ele>
        <time>2013-12-17T14:18:32Z</time>
      </trkpt>
      <trkpt lat="44.35231" lon="4.16773">
        <ele>224</ele>
        <time>2013-12-17T14:18:46Z</time>
      </trkpt>
      <trkpt lat="44.35233" lon="4.16749">
        <ele>224</ele>
        <time>2013-12-17T14:19:02Z</time>
      </trkpt>
      <trkpt lat="44.35234" lon="4.16725">
        <ele>227</ele>
        <time>2013-12-17T14:19:18Z</time>
      </trkpt>
      <trkpt lat="44.3524" lon="4.16701">
        <ele>231</ele>
        <time>2013-12-17T14:19:36Z</time>
      </trkpt>
      <trkpt lat="44.35248" lon="4.1668">
        <ele>232</ele>
        <time>2013-12-17T14:19:56Z</time>
      </trkpt>
      <trkpt lat="44.35259" lon="4.1666">
        <ele>237</ele>
        <time>2013-12-17T14:20:19Z</time>
      </trkpt>
      <trkpt lat="44.35249" lon="4.16639">
        <ele>237</ele>
        <time>2013-12-17T14:20:28Z</time>
      </trkpt>
      <trkpt lat="44.35254" lon="4.16615">
        <ele>243</ele>
        <time>2013-12-17T14:20:57Z</time>
      </trkpt>
      <trkpt lat="44.35262" lon="4.16593">
        <ele>235</ele>
        <time>2013-12-17T14:21:51Z</time>
      </trkpt>
      <trkpt lat="44.35275" lon="4.16575">
        <ele>220</ele>
        <time>2013-12-17T14:23:17Z</time>
      </trkpt>
      <trkpt lat="44.35291" lon="4.16564">
        <ele>210</ele>
        <time>2013-12-17T14:23:44Z</time>
      </trkpt>
      <trkpt lat="44.35301" lon="4.16544">
        <ele>205</ele>
        <time>2013-12-17T14:24:06Z</time>
      </trkpt>
      <trkpt lat="44.35305" lon="4.1652">
        <ele>204</ele>
        <time>2013-12-17T14:24:28Z</time>
      </trkpt>
      <trkpt lat="44.35297" lon="4.16498">
        <ele>228</ele>
        <time>2013-12-17T14:25:50Z</time>
      </trkpt>
      <trkpt lat="44.35307" lon="4.16477">
        <ele>227</ele>
        <time>2013-12-17T14:26:57Z</time>
      </trkpt>
      <trkpt lat="44.35304" lon="4.16454">
        <ele>234</ele>
        <time>2013-12-17T14:27:44Z</time>
      </trkpt>
      <trkpt lat="44.35303" lon="4.16429">
        <ele>238</ele>
        <time>2013-12-17T14:28:27Z</time>
      </trkpt>
      <trkpt lat="44.35295" lon="4.16407">
        <ele>237</ele>
        <time>2013-12-17T14:29:10Z</time>
      </trkpt>
      <trkpt lat="44.35286" lon="4.16385">
        <ele>241</ele>
        <time>2013-12-17T14:29:47Z</time>
      </trkpt>
      <trkpt lat="44.35286" lon="4.1636">
        <ele>247</ele>
        <time>2013-12-17T14:30:18Z</time>
      </trkpt>
      <trkpt lat="44.35281" lon="4.16336">
        <ele>247</ele>
        <time>2013-12-17T14:30:44Z</time>
      </trkpt>
      <trkpt lat="44.35288" lon="4.16313">
        <ele>250</ele>
        <time>2013-12-17T14:31:15Z</time>
      </trkpt>
      <trkpt lat="44.35293" lon="4.16289">
        <ele>261</ele>
        <time>2013-12-17T14:38:39Z</time>
      </trkpt>
      <trkpt lat="44.35291" lon="4.16265">
        <ele>259</ele>
        <time>2013-12-17T14:39:00Z</time>
      </trkpt>
      <trkpt lat="44.35283" lon="4.16243">
        <ele>258</ele>
        <time>2013-12-17T14:39:19Z</time>
      </trkpt>
      <trkpt lat="44.35278" lon="4.1622">
        <ele>257</ele>
        <time>2013-12-17T14:39:42Z</time>
      </trkpt>
      <trkpt lat="44.35277" lon="4.16196">
        <ele>255</ele>
        <time>2013-12-17T14:40:02Z</time>
      </trkpt>
      <trkpt lat="44.35278" lon="4.16171">
        <ele>253</ele>
        <time>2013-12-17T14:40:21Z</time>
      </trkpt>
      <trkpt lat="44.35278" lon="4.16147">
        <ele>256</ele>
        <time>2013-12-17T14:40:39Z</time>
      </trkpt>
      <trkpt lat="44.35277" lon="4.16122">
        <ele>258</ele>
        <time>2013-12-17T14:41:01Z</time>
      </trkpt>
      <trkpt lat="44.35267" lon="4.16102">
        <ele>260</ele>
        <time>2013-12-17T14:41:22Z</time>
      </trkpt>
      <trkpt lat="44.35253" lon="4.16088">
        <ele>261</ele>
        <time>2013-12-17T14:41:41Z</time>
      </trkpt>
      <trkpt lat="44.35238" lon="4.16074">
        <ele>263</ele>
        <time>2013-12-17T14:41:57Z</time>
      </trkpt>
      <trkpt lat="44.35223" lon="4.16062">
        <ele>263</ele>
        <time>2013-12-17T14:42:14Z</time>
      </trkpt>
      <trkpt lat="44.35207" lon="4.16051">
        <ele>263</ele>
        <time>2013-12-17T14:42:30Z</time>
      </trkpt>
      <trkpt lat="44.35191" lon="4.1604">
        <ele>263</ele>
        <time>2013-12-17T14:42:47Z</time>
      </trkpt>
      <trkpt lat="44.35174" lon="4.16033">
        <ele>262</ele>
        <time>2013-12-17T14:43:04Z</time>
      </trkpt>
      <trkpt lat="44.3516" lon="4.16017">
        <ele>260</ele>
        <time>2013-12-17T14:43:24Z</time>
      </trkpt>
      <trkpt lat="44.3517" lon="4.15998">
        <ele>260</ele>
        <time>2013-12-17T14:43:39Z</time>
      </trkpt>
      <trkpt lat="44.35184" lon="4.15983">
        <ele>259</ele>
        <time>2013-12-17T14:43:55Z</time>
      </trkpt>
      <trkpt lat="44.35196" lon="4.15966">
        <ele>259</ele>
        <time>2013-12-17T14:44:11Z</time>
      </trkpt>
      <trkpt lat="44.35204" lon="4.15944">
        <ele>262</ele>
        <time>2013-12-17T14:44:27Z</time>
      </trkpt>
      <trkpt lat="44.35207" lon="4.15921">
        <ele>262</ele>
        <time>2013-12-17T14:44:44Z</time>
      </trkpt>
      <trkpt lat="44.35224" lon="4.15914">
        <ele>263</ele>
        <time>2013-12-17T14:45:06Z</time>
      </trkpt>
      <trkpt lat="44.35241" lon="4.15919">
        <ele>265</ele>
        <time>2013-12-17T14:45:22Z</time>
      </trkpt>
      <trkpt lat="44.35259" lon="4.15923">
        <ele>266</ele>
        <time>2013-12-17T14:45:37Z</time>
      </trkpt>
      <trkpt lat="44.35275" lon="4.1593">
        <ele>264</ele>
        <time>2013-12-17T14:45:52Z</time>
      </trkpt>
      <trkpt lat="44.35292" lon="4.15937">
        <ele>262</ele>
        <time>2013-12-17T14:46:09Z</time>
      </trkpt>
      <trkpt lat="44.35309" lon="4.15943">
        <ele>261</ele>
        <time>2013-12-17T14:46:28Z</time>
      </trkpt>
      <trkpt lat="44.35326" lon="4.15947">
        <ele>260</ele>
        <time>2013-12-17T14:46:51Z</time>
      </trkpt>
      <trkpt lat="44.35343" lon="4.15951">
        <ele>258</ele>
        <time>2013-12-17T14:47:11Z</time>
      </trkpt>
      <trkpt lat="44.35359" lon="4.15942">
        <ele>255</ele>
        <time>2013-12-17T14:47:27Z</time>
      </trkpt>
      <trkpt lat="44.35372" lon="4.15925">
        <ele>253</ele>
        <time>2013-12-17T14:47:44Z</time>
      </trkpt>
      <trkpt lat="44.35379" lon="4.15904">
        <ele>257</ele>
        <time>2013-12-17T14:47:58Z</time>
      </trkpt>
      <trkpt lat="44.35394" lon="4.15891">
        <ele>258</ele>
        <time>2013-12-17T14:48:23Z</time>
      </trkpt>
      <trkpt lat="44.35411" lon="4.15884">
        <ele>254</ele>
        <time>2013-12-17T14:48:45Z</time>
      </trkpt>
      <trkpt lat="44.35426" lon="4.15871">
        <ele>256</ele>
        <time>2013-12-17T14:49:04Z</time>
      </trkpt>
      <trkpt lat="44.35442" lon="4.15861">
        <ele>254</ele>
        <time>2013-12-17T14:49:27Z</time>
      </trkpt>
      <trkpt lat="44.35459" lon="4.15854">
        <ele>248</ele>
        <time>2013-12-17T14:49:44Z</time>
      </trkpt>
      <trkpt lat="44.35471" lon="4.15836">
        <ele>243</ele>
        <time>2013-12-17T14:50:07Z</time>
      </trkpt>
      <trkpt lat="44.35487" lon="4.15828">
        <ele>242</ele>
        <time>2013-12-17T14:50:29Z</time>
      </trkpt>
      <trkpt lat="44.35504" lon="4.15833">
        <ele>247</ele>
        <time>2013-12-17T14:50:47Z</time>
      </trkpt>
      <trkpt lat="44.3552" lon="4.15837">
        <ele>248</ele>
        <time>2013-12-17T14:51:02Z</time>
      </trkpt>
      <trkpt lat="44.35537" lon="4.15841">
        <ele>245</ele>
        <time>2013-12-17T14:51:16Z</time>
      </trkpt>
      <trkpt lat="44.35555" lon="4.15845">
        <ele>242</ele>
        <time>2013-12-17T14:51:35Z</time>
      </trkpt>
      <trkpt lat="44.3557" lon="4.15858">
        <ele>248</ele>
        <time>2013-12-17T14:51:57Z</time>
      </trkpt>
      <trkpt lat="44.35586" lon="4.15869">
        <ele>246</ele>
        <time>2013-12-17T14:52:16Z</time>
      </trkpt>
      <trkpt lat="44.356" lon="4.15881">
        <ele>248</ele>
        <time>2013-12-17T14:52:37Z</time>
      </trkpt>
      <trkpt lat="44.35615" lon="4.15895">
        <ele>250</ele>
        <time>2013-12-17T14:53:02Z</time>
      </trkpt>
      <trkpt lat="44.35629" lon="4.1591">
        <ele>248</ele>
        <time>2013-12-17T14:53:27Z</time>
      </trkpt>
      <trkpt lat="44.35645" lon="4.15919">
        <ele>244</ele>
        <time>2013-12-17T14:53:48Z</time>
      </trkpt>
      <trkpt lat="44.35662" lon="4.15924">
        <ele>241</ele>
        <time>2013-12-17T14:54:06Z</time>
      </trkpt>
      <trkpt lat="44.35678" lon="4.15935">
        <ele>239</ele>
        <time>2013-12-17T14:54:30Z</time>
      </trkpt>
      <trkpt lat="44.35692" lon="4.15951">
        <ele>244</ele>
        <time>2013-12-17T14:55:00Z</time>
      </trkpt>
      <trkpt lat="44.35709" lon="4.15947">
        <ele>237</ele>
        <time>2013-12-17T14:55:24Z</time>
      </trkpt>
      <trkpt lat="44.35726" lon="4.15938">
        <ele>240</ele>
        <time>2013-12-17T14:55:45Z</time>
      </trkpt>
      <trkpt lat="44.35744" lon="4.1594">
        <ele>240</ele>
        <time>2013-12-17T14:56:07Z</time>
      </trkpt>
      <trkpt lat="44.35761" lon="4.15946">
        <ele>237</ele>
        <time>2013-12-17T14:56:23Z</time>
      </trkpt>
      <trkpt lat="44.35778" lon="4.15954">
        <ele>234</ele>
        <time>2013-12-17T14:56:44Z</time>
      </trkpt>
      <trkpt lat="44.35793" lon="4.15964">
        <ele>234</ele>
        <time>2013-12-17T14:57:11Z</time>
      </trkpt>
      <trkpt lat="44.35807" lon="4.15978">
        <ele>232</ele>
        <time>2013-12-17T14:57:44Z</time>
      </trkpt>
      <trkpt lat="44.35825" lon="4.15983">
        <ele>227</ele>
        <time>2013-12-17T14:58:10Z</time>
      </trkpt>
      <trkpt lat="44.35842" lon="4.15981">
        <ele>222</ele>
        <time>2013-12-17T14:58:36Z</time>
      </trkpt>
      <trkpt lat="44.35859" lon="4.15988">
        <ele>220</ele>
        <time>2013-12-17T14:59:09Z</time>
      </trkpt>
      <trkpt lat="44.35875" lon="4.15997">
        <ele>217</ele>
        <time>2013-12-17T14:59:34Z</time>
      </trkpt>
      <trkpt lat="44.35893" lon="4.15998">
        <ele>218</ele>
        <time>2013-12-17T14:59:59Z</time>
      </trkpt>
      <trkpt lat="44.35909" lon="4.16006">
        <ele>216</ele>
        <time>2013-12-17T15:00:20Z</time>
      </trkpt>
      <trkpt lat="44.35924" lon="4.16018">
        <ele>215</ele>
        <time>2013-12-17T15:00:37Z</time>
      </trkpt>
      <trkpt lat="44.35938" lon="4.1603">
        <ele>214</ele>
        <time>2013-12-17T15:00:50Z</time>
      </trkpt>
      <trkpt lat="44.35952" lon="4.16044">
        <ele>220</ele>
        <time>2013-12-17T15:03:34Z</time>
      </trkpt>
      <trkpt lat="44.35969" lon="4.16044">
        <ele>214</ele>
        <time>2013-12-17T15:03:55Z</time>
      </trkpt>
      <trkpt lat="44.35977" lon="4.16022">
        <ele>206</ele>
        <time>2013-12-17T15:04:15Z</time>
      </trkpt>
      <trkpt lat="44.35983" lon="4.15999">
        <ele>202</ele>
        <time>2013-12-17T15:04:36Z</time>
      </trkpt>
      <trkpt lat="44.35981" lon="4.15974">
        <ele>201</ele>
        <time>2013-12-17T15:04:56Z</time>
      </trkpt>
      <trkpt lat="44.35984" lon="4.15951">
        <ele>210</ele>
        <time>2013-12-17T15:05:09Z</time>
      </trkpt>
      <trkpt lat="44.35994" lon="4.15931">
        <ele>215</ele>
        <time>2013-12-17T15:05:24Z</time>
      </trkpt>
      <trkpt lat="44.36012" lon="4.15927">
        <ele>212</ele>
        <time>2013-12-17T15:05:41Z</time>
      </trkpt>
      <trkpt lat="44.36029" lon="4.15925">
        <ele>208</ele>
        <time>2013-12-17T15:05:56Z</time>
      </trkpt>
      <trkpt lat="44.36047" lon="4.15926">
        <ele>211</ele>
        <time>2013-12-17T15:06:14Z</time>
      </trkpt>
      <trkpt lat="44.36064" lon="4.15927">
        <ele>208</ele>
        <time>2013-12-17T15:06:31Z</time>
      </trkpt>
      <trkpt lat="44.36081" lon="4.15928">
        <ele>208</ele>
        <time>2013-12-17T15:06:51Z</time>
      </trkpt>
      <trkpt lat="44.36099" lon="4.15931">
        <ele>208</ele>
        <time>2013-12-17T15:07:11Z</time>
      </trkpt>
      <trkpt lat="44.36116" lon="4.1593">
        <ele>209</ele>
        <time>2013-12-17T15:07:28Z</time>
      </trkpt>
      <trkpt lat="44.36134" lon="4.15933">
        <ele>206</ele>
        <time>2013-12-17T15:07:50Z</time>
      </trkpt>
      <trkpt lat="44.3615" lon="4.15932">
        <ele>213</ele>
        <time>2013-12-17T15:08:09Z</time>
      </trkpt>
      <trkpt lat="44.36168" lon="4.15936">
        <ele>211</ele>
        <time>2013-12-17T15:08:24Z</time>
      </trkpt>
      <trkpt lat="44.36186" lon="4.15939">
        <ele>216</ele>
        <time>2013-12-17T15:08:44Z</time>
      </trkpt>
      <trkpt lat="44.36199" lon="4.15922">
        <ele>225</ele>
        <time>2013-12-17T15:09:11Z</time>
      </trkpt>
      <trkpt lat="44.36198" lon="4.15897">
        <ele>225</ele>
        <time>2013-12-17T15:09:30Z</time>
      </trkpt>
      <trkpt lat="44.36205" lon="4.15874">
        <ele>224</ele>
        <time>2013-12-17T15:09:55Z</time>
      </trkpt>
      <trkpt lat="44.36212" lon="4.15852">
        <ele>226</ele>
        <time>2013-12-17T15:10:16Z</time>
      </trkpt>
      <trkpt lat="44.36221" lon="4.15832">
        <ele>228</ele>
        <time>2013-12-17T15:10:37Z</time>
      </trkpt>
      <trkpt lat="44.36221" lon="4.15808">
        <ele>224</ele>
        <time>2013-12-17T15:10:58Z</time>
      </trkpt>
      <trkpt lat="44.36221" lon="4.15783">
        <ele>226</ele>
        <time>2013-12-17T15:11:17Z</time>
      </trkpt>
      <trkpt lat="44.36235" lon="4.15768">
        <ele>226</ele>
        <time>2013-12-17T15:11:39Z</time>
      </trkpt>
      <trkpt lat="44.36253" lon="4.15764">
        <ele>234</ele>
        <time>2013-12-17T15:11:57Z</time>
      </trkpt>
      <trkpt lat="44.3627" lon="4.15763">
        <ele>240</ele>
        <time>2013-12-17T15:12:17Z</time>
      </trkpt>
      <trkpt lat="44.36288" lon="4.15763">
        <ele>248</ele>
        <time>2013-12-17T15:12:32Z</time>
      </trkpt>
      <trkpt lat="44.36305" lon="4.15769">
        <ele>252</ele>
        <time>2013-12-17T15:12:53Z</time>
      </trkpt>
      <trkpt lat="44.36321" lon="4.15776">
        <ele>254</ele>
        <time>2013-12-17T15:13:13Z</time>
      </trkpt>
      <trkpt lat="44.36338" lon="4.15784">
        <ele>256</ele>
        <time>2013-12-17T15:13:39Z</time>
      </trkpt>
      <trkpt lat="44.36355" lon="4.15786">
        <ele>258</ele>
        <time>2013-12-17T15:13:56Z</time>
      </trkpt>
      <trkpt lat="44.36373" lon="4.15788">
        <ele>257</ele>
        <time>2013-12-17T15:14:16Z</time>
      </trkpt>
      <trkpt lat="44.36391" lon="4.15789">
        <ele>259</ele>
        <time>2013-12-17T15:14:38Z</time>
      </trkpt>
      <trkpt lat="44.36408" lon="4.15791">
        <ele>261</ele>
        <time>2013-12-17T15:14:59Z</time>
      </trkpt>
      <trkpt lat="44.36425" lon="4.15795">
        <ele>261</ele>
        <time>2013-12-17T15:15:24Z</time>
      </trkpt>
      <trkpt lat="44.36442" lon="4.15788">
        <ele>262</ele>
        <time>2013-12-17T15:15:44Z</time>
      </trkpt>
      <trkpt lat="44.36455" lon="4.15771">
        <ele>268</ele>
        <time>2013-12-17T15:16:09Z</time>
      </trkpt>
      <trkpt lat="44.36454" lon="4.15748">
        <ele>273</ele>
        <time>2013-12-17T15:16:26Z</time>
      </trkpt>
      <trkpt lat="44.36452" lon="4.15723">
        <ele>276</ele>
        <time>2013-12-17T15:16:51Z</time>
      </trkpt>
      <trkpt lat="44.36459" lon="4.157">
        <ele>277</ele>
        <time>2013-12-17T15:17:30Z</time>
      </trkpt>
      <trkpt lat="44.36475" lon="4.1569">
        <ele>280</ele>
        <time>2013-12-17T15:17:59Z</time>
      </trkpt>
      <trkpt lat="44.36482" lon="4.15668">
        <ele>282</ele>
        <time>2013-12-17T15:18:28Z</time>
      </trkpt>
      <trkpt lat="44.36491" lon="4.15647">
        <ele>283</ele>
        <time>2013-12-17T15:18:49Z</time>
      </trkpt>
      <trkpt lat="44.36505" lon="4.15631">
        <ele>284</ele>
        <time>2013-12-17T15:19:09Z</time>
      </trkpt>
      <trkpt lat="44.36519" lon="4.15617">
        <ele>280</ele>
        <time>2013-12-17T15:19:29Z</time>
      </trkpt>
      <trkpt lat="44.36535" lon="4.15609">
        <ele>290</ele>
        <time>2013-12-17T15:19:48Z</time>
      </trkpt>
      <trkpt lat="44.3655" lon="4.15599">
        <ele>284</ele>
        <time>2013-12-17T15:20:03Z</time>
      </trkpt>
      <trkpt lat="44.36562" lon="4.15584">
        <ele>285</ele>
        <time>2013-12-17T15:20:18Z</time>
      </trkpt>
      <trkpt lat="44.36575" lon="4.15568">
        <ele>288</ele>
        <time>2013-12-17T15:20:33Z</time>
      </trkpt>
      <trkpt lat="44.36589" lon="4.15553">
        <ele>289</ele>
        <time>2013-12-17T15:20:50Z</time>
      </trkpt>
      <trkpt lat="44.36603" lon="4.15538">
        <ele>284</ele>
        <time>2013-12-17T15:21:14Z</time>
      </trkpt>
      <trkpt lat="44.3662" lon="4.15532">
        <ele>283</ele>
        <time>2013-12-17T15:21:33Z</time>
      </trkpt>
      <trkpt lat="44.36634" lon="4.15517">
        <ele>284</ele>
        <time>2013-12-17T15:21:52Z</time>
      </trkpt>
      <trkpt lat="44.3665" lon="4.15504">
        <ele>283</ele>
        <time>2013-12-17T15:22:23Z</time>
      </trkpt>
      <trkpt lat="44.36659" lon="4.1551">
        <ele>281</ele>
        <time>2013-12-17T15:23:19Z</time>
      </trkpt>
      <trkpt lat="44.36659" lon="4.1551">
        <ele>281</ele>
        <time>2013-12-17T15:23:20Z</time>
      </trkpt>
    </trkseg>
  </trk>
</gpx>